createdAt,value
2019-01-19T00:01:40.212Z,43.60
2019-01-19T00:04:20.336Z,43.60
2019-01-19T00:07:00.691Z,43.60
2019-01-19T00:09:56.492Z,43.60
2019-01-19T00:12:33.520Z,43.60
2019-01-19T00:15:02.619Z,43.60
2019-01-19T00:17:48.712Z,43.70
2019-01-19T00:20:52.920Z,43.60
2019-01-19T00:23:32.973Z,43.70
2019-01-19T00:26:22.544Z,43.60
2019-01-19T00:29:08.667Z,43.70
2019-01-19T00:31:45.819Z,43.70
2019-01-19T00:34:25.424Z,43.70
2019-01-19T00:36:56.912Z,43.60
2019-01-19T00:39:40.042Z,43.70
2019-01-19T00:42:14.069Z,43.70
2019-01-19T00:44:54.239Z,43.60
2019-01-19T00:47:31.235Z,43.60
2019-01-19T00:50:02.793Z,43.60
2019-01-19T00:52:39.734Z,43.70
2019-01-19T00:55:13.772Z,43.60
2019-01-19T00:57:48.166Z,43.70
2019-01-19T01:00:34.892Z,43.70
2019-01-19T01:03:06.371Z,43.60
2019-01-19T01:05:37.877Z,43.60
2019-01-19T01:08:34.592Z,43.60
2019-01-19T01:11:08.524Z,43.60
2019-01-19T01:13:57.920Z,43.70
2019-01-19T01:16:41.083Z,43.60
2019-01-19T01:19:12.566Z,43.70
2019-01-19T01:21:55.935Z,43.70
2019-01-19T01:24:30.320Z,43.60
2019-01-19T01:27:07.672Z,43.80
2019-01-19T01:29:50.219Z,43.70
2019-01-19T01:32:24.332Z,43.80
2019-01-19T01:35:32.652Z,43.70
2019-01-19T01:38:00.536Z,43.70
2019-01-19T01:41:04.855Z,43.80
2019-01-19T01:43:48.221Z,43.70
2019-01-19T01:46:25.783Z,43.80
2019-01-19T01:48:59.907Z,43.70
2019-01-19T01:51:34.052Z,43.70
2019-01-19T01:54:20.612Z,43.60
2019-01-19T01:56:49.024Z,43.70
2019-01-19T01:59:29.780Z,43.70
2019-01-19T02:02:07.042Z,43.60
2019-01-19T02:04:54.708Z,43.60
2019-01-19T02:07:29.103Z,43.60
2019-01-19T02:10:20.027Z,43.70
2019-01-19T02:12:57.340Z,43.60
2019-01-19T02:15:36.955Z,43.60
2019-01-19T02:18:11.132Z,43.70
2019-01-19T02:20:54.276Z,43.70
2019-01-19T02:23:37.619Z,43.70
2019-01-19T02:26:25.524Z,43.70
2019-01-19T02:29:05.884Z,43.70
2019-01-19T02:31:37.380Z,43.70
2019-01-19T02:34:17.608Z,43.70
2019-01-19T02:37:09.958Z,43.70
2019-01-19T02:39:41.435Z,43.70
2019-01-19T02:42:21.703Z,43.70
2019-01-19T02:45:05.124Z,43.70
2019-01-19T02:48:00.700Z,43.70
2019-01-19T02:50:37.770Z,43.70
2019-01-19T02:53:31.296Z,43.70
2019-01-19T02:56:08.457Z,43.70
2019-01-19T02:58:46.591Z,43.70
2019-01-19T03:01:52.684Z,43.70
2019-01-19T03:04:40.396Z,43.70
2019-01-19T03:07:26.022Z,43.80
2019-01-19T03:10:09.472Z,43.80
2019-01-19T03:12:59.233Z,43.70
2019-01-19T03:15:33.602Z,43.70
2019-01-19T03:18:20.038Z,43.80
2019-01-19T03:21:00.333Z,43.80
2019-01-19T03:23:37.876Z,43.80
2019-01-19T03:26:20.934Z,43.70
2019-01-19T03:29:01.290Z,43.80
2019-01-19T03:31:41.690Z,43.70
2019-01-19T03:34:15.776Z,43.70
2019-01-19T03:37:04.836Z,43.70
2019-01-19T03:39:45.142Z,43.80
2019-01-19T03:42:16.815Z,43.80
2019-01-19T03:44:50.953Z,43.80
2019-01-19T03:47:28.183Z,43.80
2019-01-19T03:50:11.575Z,43.80
2019-01-19T03:52:45.920Z,43.90
2019-01-19T03:55:45.623Z,43.90
2019-01-19T03:58:19.723Z,43.90
2019-01-19T04:01:21.364Z,44.00
2019-01-19T04:04:07.764Z,44.00
2019-01-19T04:06:53.640Z,44.00
2019-01-19T04:09:30.892Z,44.00
2019-01-19T04:12:05.208Z,44.00
2019-01-19T04:14:55.925Z,43.90
2019-01-19T04:17:42.041Z,43.90
2019-01-19T04:20:19.287Z,43.80
2019-01-19T04:22:47.508Z,43.80
2019-01-19T04:25:22.209Z,43.80
2019-01-19T04:27:50.451Z,43.70
2019-01-19T04:30:18.661Z,43.70
2019-01-19T04:32:46.893Z,43.70
2019-01-19T04:35:15.418Z,43.70
2019-01-19T04:37:43.654Z,43.70
2019-01-19T04:40:12.547Z,43.70
2019-01-19T04:42:42.970Z,43.70
2019-01-19T04:45:11.181Z,43.70
2019-01-19T04:47:39.427Z,43.70
2019-01-19T04:50:09.985Z,43.70
2019-01-19T04:52:38.225Z,43.70
2019-01-19T04:55:06.986Z,43.70
2019-01-19T04:57:35.228Z,43.70
2019-01-19T05:00:06.462Z,43.70
2019-01-19T05:02:34.721Z,43.70
2019-01-19T05:05:02.938Z,43.70
2019-01-19T05:07:31.171Z,43.70
2019-01-19T05:09:59.417Z,43.70
2019-01-19T05:12:27.669Z,43.70
2019-01-19T05:14:55.891Z,43.80
2019-01-19T05:17:24.140Z,43.80
2019-01-19T05:19:52.351Z,43.80
2019-01-19T05:22:20.572Z,43.70
2019-01-19T05:24:48.815Z,43.70
2019-01-19T05:27:17.327Z,43.70
2019-01-19T05:29:45.792Z,43.70
2019-01-19T05:32:14.916Z,43.80
2019-01-19T05:34:43.499Z,43.70
2019-01-19T05:37:11.731Z,43.70
2019-01-19T05:39:39.971Z,43.70
2019-01-19T05:42:08.196Z,43.70
2019-01-19T05:44:36.444Z,43.70
2019-01-19T05:47:04.664Z,43.70
2019-01-19T05:49:32.903Z,43.70
2019-01-19T05:52:01.125Z,43.70
2019-01-19T05:54:29.365Z,43.70
2019-01-19T05:56:57.621Z,43.80
2019-01-19T05:59:25.856Z,43.70
2019-01-19T06:01:54.104Z,43.70
2019-01-19T06:04:22.352Z,43.80
2019-01-19T06:06:50.798Z,43.80
2019-01-19T06:09:19.269Z,43.80
2019-01-19T06:11:47.493Z,43.90
2019-01-19T06:14:15.736Z,43.90
2019-01-19T06:16:43.976Z,43.80
2019-01-19T06:19:12.588Z,43.70
2019-01-19T06:21:42.108Z,43.70
2019-01-19T06:24:10.644Z,43.70
2019-01-19T06:26:38.917Z,43.70
2019-01-19T06:29:07.188Z,43.70
2019-01-19T06:31:35.427Z,43.70
2019-01-19T06:34:03.691Z,43.70
2019-01-19T06:36:31.937Z,43.70
2019-01-19T06:39:00.173Z,43.70
2019-01-19T06:41:28.434Z,43.70
2019-01-19T06:43:56.656Z,43.70
2019-01-19T06:46:25.108Z,43.80
2019-01-19T06:48:53.347Z,43.70
2019-01-19T06:51:21.564Z,43.70
2019-01-19T06:53:50.183Z,43.80
2019-01-19T06:56:18.440Z,43.80
2019-01-19T06:58:46.701Z,43.80
2019-01-19T07:01:14.920Z,43.70
2019-01-19T07:03:43.377Z,43.70
2019-01-19T07:06:11.626Z,43.80
2019-01-19T07:08:39.836Z,43.70
2019-01-19T07:11:08.077Z,43.70
2019-01-19T07:13:36.349Z,43.70
2019-01-19T07:16:04.608Z,43.70
2019-01-19T07:18:32.825Z,43.60
2019-01-19T07:21:01.059Z,43.60
2019-01-19T07:23:29.295Z,43.70
2019-01-19T07:25:57.658Z,43.60
2019-01-19T07:28:25.954Z,43.70
2019-01-19T07:30:54.219Z,43.70
2019-01-19T07:33:22.505Z,43.80
2019-01-19T07:35:50.782Z,43.80
2019-01-19T07:38:19.021Z,43.90
2019-01-19T07:40:47.352Z,43.90
2019-01-19T07:43:15.730Z,43.90
2019-01-19T07:45:44.196Z,44.00
2019-01-19T07:48:12.604Z,43.90
2019-01-19T07:50:40.880Z,44.00
2019-01-19T07:53:09.090Z,44.00
2019-01-19T07:55:37.308Z,44.00
2019-01-19T07:58:05.553Z,44.00
2019-01-19T08:00:33.857Z,44.00
2019-01-19T08:03:02.076Z,43.90
2019-01-19T08:05:30.313Z,43.80
2019-01-19T08:07:58.791Z,43.80
2019-01-19T08:10:27.017Z,43.80
2019-01-19T08:12:55.259Z,43.80
2019-01-19T08:15:25.741Z,43.70
2019-01-19T08:17:54.010Z,43.70
2019-01-19T08:20:22.464Z,43.60
2019-01-19T08:22:50.680Z,43.70
2019-01-19T08:25:18.941Z,43.60
2019-01-19T08:27:47.159Z,43.70
2019-01-19T08:30:23.063Z,43.70
2019-01-19T08:32:51.332Z,43.70
2019-01-19T08:35:19.655Z,43.70
2019-01-19T08:37:48.156Z,43.60
2019-01-19T08:40:30.800Z,43.60
2019-01-19T08:43:06.500Z,43.60
2019-01-19T08:45:34.790Z,43.60
2019-01-19T08:48:03.504Z,43.60
2019-01-19T08:50:31.732Z,43.70
2019-01-19T08:52:59.977Z,43.70
2019-01-19T08:55:28.229Z,43.70
2019-01-19T08:57:56.688Z,43.70
2019-01-19T09:00:24.908Z,43.70
2019-01-19T09:02:53.149Z,43.80
2019-01-19T09:05:21.377Z,43.70
2019-01-19T09:07:49.712Z,43.70
2019-01-19T09:10:18.767Z,43.60
2019-01-19T09:12:47.007Z,43.50
2019-01-19T09:15:17.721Z,43.50
2019-01-19T09:17:46.203Z,44.00
2019-01-19T09:20:15.987Z,43.20
2019-01-19T09:22:44.681Z,43.20
2019-01-19T09:25:14.373Z,43.10
2019-01-19T09:27:42.626Z,43.00
2019-01-19T09:30:13.965Z,43.00
2019-01-19T09:32:42.355Z,42.90
2019-01-19T09:35:10.838Z,42.70
2019-01-19T09:37:40.861Z,42.70
2019-01-19T09:40:12.288Z,42.70
2019-01-19T09:42:40.519Z,42.60
2019-01-19T09:45:11.259Z,42.50
2019-01-19T09:47:39.556Z,42.50
2019-01-19T09:50:11.290Z,42.40
2019-01-19T09:52:39.602Z,42.30
2019-01-19T09:55:07.943Z,42.40
2019-01-19T09:57:37.120Z,42.40
2019-01-19T10:00:16.825Z,42.40
2019-01-19T10:02:45.067Z,42.50
2019-01-19T10:05:19.189Z,42.50
2019-01-19T10:07:48.650Z,42.40
2019-01-19T10:10:17.049Z,42.40
2019-01-19T10:12:45.304Z,42.30
2019-01-19T10:15:17.665Z,42.20
2019-01-19T10:17:46.259Z,42.10
2019-01-19T10:20:23.123Z,42.10
2019-01-19T10:22:51.399Z,42.00
2019-01-19T10:25:19.636Z,42.00
2019-01-19T10:27:47.872Z,42.00
2019-01-19T10:30:21.706Z,42.00
2019-01-19T10:32:49.931Z,42.30
2019-01-19T10:35:18.240Z,43.00
2019-01-19T10:37:46.613Z,43.30
2019-01-19T10:40:18.918Z,43.60
2019-01-19T10:42:47.243Z,43.70
2019-01-19T10:45:20.812Z,43.60
2019-01-19T10:47:50.000Z,43.80
2019-01-19T10:50:18.505Z,43.90
2019-01-19T10:52:46.903Z,43.90
2019-01-19T10:55:19.659Z,44.00
2019-01-19T10:57:47.957Z,43.90
2019-01-19T11:00:19.603Z,44.00
2019-01-19T11:02:47.855Z,44.20
2019-01-19T11:05:16.108Z,43.90
2019-01-19T11:07:48.686Z,43.80
2019-01-19T11:10:19.545Z,43.70
2019-01-19T11:12:47.860Z,43.60
2019-01-19T11:15:17.753Z,43.60
2019-01-19T11:17:46.240Z,43.50
2019-01-19T11:20:16.807Z,43.30
2019-01-19T11:22:45.053Z,43.30
2019-01-19T11:25:13.451Z,43.20
2019-01-19T11:27:41.707Z,43.20
2019-01-19T11:30:18.762Z,43.00
2019-01-19T11:32:47.224Z,43.00
2019-01-19T11:35:15.740Z,42.90
2019-01-19T11:37:43.983Z,42.80
2019-01-19T11:40:14.872Z,42.80
2019-01-19T11:42:43.126Z,42.60
2019-01-19T11:45:16.924Z,42.60
2019-01-19T11:47:45.160Z,42.40
2019-01-19T11:50:13.942Z,42.40
2019-01-19T11:52:42.159Z,42.30
2019-01-19T11:55:14.099Z,42.30
2019-01-19T11:57:42.573Z,42.10
2019-01-19T12:00:19.403Z,42.00
2019-01-19T12:02:47.703Z,42.00
2019-01-19T12:05:15.936Z,41.90
2019-01-19T12:07:44.194Z,41.80
2019-01-19T12:10:20.600Z,41.80
2019-01-19T12:12:48.864Z,41.70
2019-01-19T12:15:17.180Z,41.60
2019-01-19T12:17:45.459Z,41.60
2019-01-19T12:20:19.474Z,41.50
2019-01-19T12:22:47.745Z,41.50
2019-01-19T12:25:23.656Z,41.40
2019-01-19T12:27:51.907Z,41.40
2019-01-19T12:30:24.968Z,41.20
2019-01-19T12:32:53.232Z,41.20
2019-01-19T12:35:21.598Z,41.10
2019-01-19T12:37:50.200Z,41.10
2019-01-19T12:40:20.733Z,41.10
2019-01-19T12:42:50.763Z,41.20
2019-01-19T12:45:31.152Z,41.00
2019-01-19T12:47:59.643Z,40.90
2019-01-19T12:50:27.924Z,40.60
2019-01-19T12:52:56.174Z,39.30
2019-01-19T12:55:24.408Z,37.00
2019-01-19T12:57:52.651Z,35.10
2019-01-19T13:00:25.607Z,33.40
2019-01-19T13:02:54.720Z,32.20
2019-01-19T13:05:37.703Z,31.90
2019-01-19T13:08:09.554Z,32.30
2019-01-19T13:10:47.073Z,32.40
2019-01-19T13:13:15.299Z,31.90
2019-01-19T13:15:49.431Z,31.90
2019-01-19T13:18:39.015Z,31.00
2019-01-19T13:21:25.692Z,30.40
2019-01-19T13:24:11.994Z,29.80
2019-01-19T13:27:00.035Z,29.40
2019-01-19T13:29:32.339Z,29.10
2019-01-19T13:32:26.655Z,28.80
2019-01-19T13:35:16.233Z,28.70
2019-01-19T13:37:50.766Z,29.60
2019-01-19T13:40:30.584Z,30.70
2019-01-19T13:43:10.708Z,31.10
2019-01-19T13:45:42.467Z,30.60
2019-01-19T13:48:22.510Z,30.10
2019-01-19T13:51:02.804Z,29.80
2019-01-19T13:53:46.535Z,29.40
2019-01-19T13:56:29.928Z,29.20
2019-01-19T13:59:27.540Z,29.00
2019-01-19T14:02:13.272Z,28.90
2019-01-19T14:05:01.116Z,29.20
2019-01-19T14:07:50.252Z,29.90
2019-01-19T14:10:21.772Z,30.90
2019-01-19T14:13:05.143Z,31.90
2019-01-19T14:15:42.212Z,32.70
2019-01-19T14:18:31.651Z,33.50
2019-01-19T14:21:19.816Z,34.00
2019-01-19T14:24:03.226Z,34.70
2019-01-19T14:26:53.956Z,35.10
2019-01-19T14:29:40.340Z,35.50
2019-01-19T14:32:16.999Z,35.90
2019-01-19T14:34:57.107Z,36.20
2019-01-19T14:37:49.554Z,36.40
2019-01-19T14:40:36.147Z,36.70
2019-01-19T14:43:30.052Z,37.00
2019-01-19T14:46:26.811Z,37.20
2019-01-19T14:49:07.066Z,37.40
2019-01-19T14:51:50.298Z,37.60
2019-01-19T14:54:36.665Z,37.90
2019-01-19T14:57:22.802Z,38.10
2019-01-19T15:00:19.261Z,38.30
2019-01-19T15:02:59.344Z,38.40
2019-01-19T15:05:42.810Z,38.60
2019-01-19T15:08:26.104Z,38.60
2019-01-19T15:11:00.321Z,38.70
2019-01-19T15:13:43.723Z,38.80
2019-01-19T15:16:46.202Z,38.80
2019-01-19T15:19:53.540Z,38.90
2019-01-19T15:22:56.654Z,39.10
2019-01-19T15:25:36.952Z,39.20
2019-01-19T15:28:43.092Z,39.20
2019-01-19T15:31:17.171Z,39.50
2019-01-19T15:33:57.617Z,39.60
2019-01-19T15:36:34.987Z,39.70
2019-01-19T15:39:11.003Z,39.70
2019-01-19T15:41:43.884Z,39.70
2019-01-19T15:44:21.012Z,39.80
2019-01-19T15:46:58.216Z,39.80
2019-01-19T15:49:41.407Z,39.80
2019-01-19T15:52:21.595Z,39.90
2019-01-19T15:54:53.098Z,40.00
2019-01-19T15:57:40.647Z,40.00
2019-01-19T16:00:12.163Z,40.00
2019-01-19T16:02:55.284Z,40.10
2019-01-19T16:05:44.571Z,40.20
2019-01-19T16:08:21.840Z,40.20
2019-01-19T16:11:09.572Z,40.30
2019-01-19T16:14:03.459Z,40.30
2019-01-19T16:16:43.896Z,40.40
2019-01-19T16:19:27.268Z,40.40
2019-01-19T16:22:21.030Z,40.40
2019-01-19T16:24:58.181Z,40.50
2019-01-19T16:27:50.576Z,40.50
2019-01-19T16:30:44.667Z,40.50
2019-01-19T16:33:35.655Z,40.60
2019-01-19T16:36:29.181Z,40.70
2019-01-19T16:39:25.565Z,40.60
2019-01-19T16:42:06.595Z,40.60
2019-01-19T16:44:58.823Z,40.60
2019-01-19T16:47:41.392Z,40.60
2019-01-19T16:50:41.410Z,40.80
2019-01-19T16:53:21.548Z,40.80
2019-01-19T16:56:07.832Z,40.90
2019-01-19T16:58:47.864Z,40.90
2019-01-19T17:01:27.936Z,41.00
2019-01-19T17:04:05.404Z,41.10
2019-01-19T17:06:48.335Z,41.10
2019-01-19T17:09:34.707Z,41.20
2019-01-19T17:12:15.051Z,41.30
2019-01-19T17:15:01.250Z,41.20
2019-01-19T17:17:46.955Z,41.30
2019-01-19T17:20:20.921Z,41.30
2019-01-19T17:22:58.183Z,41.30
2019-01-19T17:25:44.530Z,41.30
2019-01-19T17:28:24.804Z,41.40
2019-01-19T17:31:15.384Z,41.30
2019-01-19T17:33:52.451Z,41.30
2019-01-19T17:36:41.836Z,41.30
2019-01-19T17:39:16.160Z,41.30
2019-01-19T17:42:08.408Z,41.30
2019-01-19T17:44:45.812Z,41.40
2019-01-19T17:47:20.044Z,41.50
2019-01-19T17:50:08.131Z,41.40
2019-01-19T17:52:45.463Z,41.40
2019-01-19T17:55:22.666Z,41.50
2019-01-19T17:58:17.914Z,41.50
2019-01-19T18:01:01.228Z,41.50
2019-01-19T18:03:38.223Z,41.50
2019-01-19T18:06:11.339Z,41.60
2019-01-19T18:09:11.544Z,41.60
2019-01-19T18:11:43.141Z,41.70
2019-01-19T18:14:45.851Z,41.70
2019-01-19T18:17:45.644Z,41.70
2019-01-19T18:20:17.123Z,41.80
2019-01-19T18:23:03.306Z,41.80
2019-01-19T18:25:40.264Z,41.80
2019-01-19T18:28:17.957Z,41.80
2019-01-19T18:30:49.623Z,41.90
2019-01-19T18:33:21.098Z,41.80
2019-01-19T18:36:00.887Z,41.80
2019-01-19T18:39:06.923Z,41.80
2019-01-19T18:41:56.040Z,41.90
2019-01-19T18:44:46.702Z,42.00
2019-01-19T18:47:35.920Z,42.00
2019-01-19T18:50:34.116Z,42.10
2019-01-19T18:53:17.541Z,42.10
2019-01-19T18:55:49.019Z,42.20
2019-01-19T18:58:44.351Z,42.20
2019-01-19T19:01:44.508Z,42.20
2019-01-19T19:04:18.916Z,42.20
2019-01-19T19:07:12.836Z,42.40
2019-01-19T19:09:52.894Z,42.40
2019-01-19T19:12:58.160Z,42.40
2019-01-19T19:16:04.016Z,43.00
2019-01-19T19:19:03.704Z,42.50
2019-01-19T19:21:51.248Z,42.50
2019-01-19T19:24:40.538Z,42.60
2019-01-19T19:27:33.787Z,42.60
2019-01-19T19:30:38.104Z,42.60
2019-01-19T19:33:24.512Z,42.60
2019-01-19T19:36:13.902Z,42.60
2019-01-19T19:38:50.948Z,42.70
2019-01-19T19:41:40.588Z,42.70
2019-01-19T19:44:26.950Z,42.70
2019-01-19T19:47:13.083Z,42.70
2019-01-19T19:49:58.994Z,42.70
2019-01-19T19:52:27.984Z,42.70
2019-01-19T19:54:55.508Z,42.70
2019-01-19T19:57:24.021Z,42.70
2019-01-19T19:59:52.281Z,42.80
2019-01-19T20:02:20.505Z,42.80
2019-01-19T20:04:48.730Z,42.90
2019-01-19T20:07:16.977Z,42.80
2019-01-19T20:09:45.222Z,42.90
2019-01-19T20:12:13.520Z,42.90
2019-01-19T20:14:42.016Z,42.90
2019-01-19T20:17:10.292Z,42.90
2019-01-19T20:19:38.573Z,43.00
2019-01-19T20:22:06.779Z,42.90
2019-01-19T20:24:34.995Z,43.00
2019-01-19T20:27:03.253Z,43.00
2019-01-19T20:29:31.495Z,43.00
2019-01-19T20:31:59.740Z,43.10
2019-01-19T20:34:27.988Z,43.10
2019-01-19T20:36:56.254Z,43.10
2019-01-19T20:39:24.494Z,43.10
2019-01-19T20:41:52.712Z,43.10
2019-01-19T20:44:21.008Z,43.10
2019-01-19T20:46:49.356Z,43.10
2019-01-19T20:49:17.663Z,43.10
2019-01-19T20:51:45.952Z,43.10
2019-01-19T20:54:14.195Z,43.10
2019-01-19T20:56:42.489Z,43.10
2019-01-19T20:59:10.732Z,43.20
2019-01-19T21:01:39.057Z,43.20
2019-01-19T21:04:07.560Z,43.20
2019-01-19T21:06:35.850Z,43.10
2019-01-19T21:09:08.084Z,43.20
2019-01-19T21:11:36.396Z,43.20
2019-01-19T21:14:04.640Z,43.20
2019-01-19T21:16:32.965Z,43.20
2019-01-19T21:19:01.247Z,43.20
2019-01-19T21:21:29.663Z,43.20
2019-01-19T21:23:57.976Z,43.30
2019-01-19T21:26:26.320Z,43.20
2019-01-19T21:28:54.617Z,43.20
2019-01-19T21:31:23.387Z,43.20
2019-01-19T21:33:51.633Z,43.20
2019-01-19T21:36:19.890Z,43.20
2019-01-19T21:38:48.134Z,43.20
2019-01-19T21:41:16.400Z,43.30
2019-01-19T21:43:44.684Z,43.30
2019-01-19T21:46:12.941Z,43.40
2019-01-19T21:48:41.439Z,43.40
2019-01-19T21:51:09.668Z,43.40
2019-01-19T21:53:38.153Z,43.50
2019-01-19T21:56:06.442Z,43.40
2019-01-19T21:58:34.677Z,43.40
2019-01-19T22:01:02.928Z,43.40
2019-01-19T22:03:31.376Z,43.40
2019-01-19T22:05:59.878Z,43.40
2019-01-19T22:08:28.160Z,43.40
2019-01-19T22:10:56.380Z,43.40
2019-01-19T22:13:24.624Z,43.30
2019-01-19T22:15:52.841Z,43.30
2019-01-19T22:18:21.318Z,43.30
2019-01-19T22:20:49.539Z,43.40
2019-01-19T22:23:17.798Z,43.40
2019-01-19T22:25:46.096Z,43.30
2019-01-19T22:28:14.545Z,43.30
2019-01-19T22:30:43.034Z,43.50
2019-01-19T22:33:11.721Z,43.40
2019-01-19T22:35:40.045Z,43.50
2019-01-19T22:38:08.277Z,43.50
2019-01-19T22:40:36.607Z,43.50
2019-01-19T22:43:04.823Z,43.50
2019-01-19T22:45:33.070Z,43.50
2019-01-19T22:48:01.295Z,43.50
2019-01-19T22:50:29.542Z,43.60
2019-01-19T22:52:58.023Z,43.50
2019-01-19T22:55:27.095Z,43.60
2019-01-19T22:57:55.331Z,43.60
2019-01-19T23:00:34.080Z,43.70
2019-01-19T23:03:02.332Z,43.70
2019-01-19T23:05:30.563Z,43.60
2019-01-19T23:07:58.805Z,43.50
2019-01-19T23:10:27.017Z,43.50
2019-01-19T23:12:55.359Z,43.50
2019-01-19T23:15:23.875Z,43.50
2019-01-19T23:17:52.116Z,43.50
2019-01-19T23:20:20.357Z,43.50
2019-01-19T23:22:48.682Z,43.50
2019-01-19T23:25:17.129Z,43.50
2019-01-19T23:27:45.621Z,43.60
2019-01-19T23:30:15.396Z,43.50
2019-01-19T23:32:43.644Z,43.50
2019-01-19T23:35:11.905Z,43.50
2019-01-19T23:37:40.139Z,43.50
2019-01-19T23:40:10.824Z,43.50
2019-01-19T23:42:46.911Z,43.50
2019-01-19T23:45:09.912Z,43.50
2019-01-19T23:47:38.189Z,43.50
2019-01-19T23:50:08.778Z,43.50
2019-01-19T23:52:37.052Z,43.70
2019-01-19T23:55:05.588Z,43.70
2019-01-19T23:57:33.784Z,43.50
